Time;durP1;ratioP1;P1;durP2;ratioP2;P2;SDS_P1;SDS_P2;PMS_P1;PMS_P2;Temp;Humidity;BMP_temperature;BMP_pressure;BME280_temperature;BME280_humidity;BME280_pressure;Samples;Min_cycle;Max_cycle;Signal;HPM_P1;HPM_P2
2022/07/06 00:00:53;;;;;;;1999.90;999.90;;;17.50;99.90;;;;;;5009720;28;20463;-67
2022/07/06 00:03:20;;;;;;;1999.90;999.90;;;17.50;99.90;;;;;;5009305;28;20530;-70
2022/07/06 00:05:47;;;;;;;1999.90;999.90;;;17.40;99.90;;;;;;5007978;28;20472;-71
2022/07/06 00:08:14;;;;;;;1999.90;999.90;;;17.20;99.90;;;;;;5007818;28;20926;-69
2022/07/06 00:10:41;;;;;;;1999.90;999.90;;;17.10;99.90;;;;;;5004071;28;20484;-70
2022/07/06 00:13:07;;;;;;;1999.90;999.90;;;17.00;99.90;;;;;;5009647;28;20518;-70
2022/07/06 00:15:34;;;;;;;1999.90;999.90;;;17.00;99.90;;;;;;5009298;28;20860;-71
2022/07/06 00:18:00;;;;;;;1999.90;999.90;;;16.90;99.90;;;;;;5006776;28;20484;-69
2022/07/06 00:20:27;;;;;;;1999.90;999.90;;;16.90;99.90;;;;;;5008880;28;20506;-70
2022/07/06 00:22:55;;;;;;;1999.90;999.90;;;16.90;99.90;;;;;;5010157;28;20472;-69
2022/07/06 00:25:22;;;;;;;1999.90;999.90;;;16.80;99.90;;;;;;5009892;28;20468;-70
2022/07/06 00:27:48;;;;;;;1999.90;999.90;;;16.70;99.90;;;;;;5010054;28;20464;-70
2022/07/06 00:30:15;;;;;;;1999.90;999.90;;;16.60;99.90;;;;;;5007836;28;20622;-71
2022/07/06 00:32:41;;;;;;;1999.90;999.90;;;16.60;99.90;;;;;;5004755;28;20514;-71
2022/07/06 00:35:08;;;;;;;1999.90;999.90;;;16.60;99.90;;;;;;5005499;28;20468;-70
2022/07/06 00:37:35;;;;;;;1999.90;999.90;;;16.50;99.90;;;;;;5009229;28;20984;-70
2022/07/06 00:40:03;;;;;;;1999.90;999.90;;;16.50;99.90;;;;;;5008083;28;20514;-70
2022/07/06 00:42:30;;;;;;;1999.90;999.90;;;16.50;99.90;;;;;;5008671;28;20460;-70
2022/07/06 00:44:57;;;;;;;1999.90;999.90;;;16.50;99.90;;;;;;5009064;28;21022;-68
2022/07/06 00:47:23;;;;;;;1999.90;999.90;;;16.50;99.90;;;;;;5008195;28;20510;-70
2022/07/06 00:52:34;;;;;;;1999.90;999.90;;;16.50;99.90;;;;;;5008847;28;20454;-70
2022/07/06 00:55:02;;;;;;;1999.90;999.90;;;16.40;99.90;;;;;;5009040;28;20530;-70
2022/07/06 00:57:29;;;;;;;1999.90;999.90;;;16.40;99.90;;;;;;5009303;28;20917;-70
2022/07/06 00:59:56;;;;;;;1999.90;999.90;;;16.30;99.90;;;;;;5008220;28;20475;-69
2022/07/06 01:02:23;;;;;;;1999.90;999.90;;;16.30;99.90;;;;;;5006935;28;20457;-69
2022/07/06 01:04:50;;;;;;;1999.90;999.90;;;16.20;99.90;;;;;;5008529;28;20514;-69
2022/07/06 01:07:17;;;;;;;1999.90;999.90;;;16.20;99.90;;;;;;5008934;28;20464;-70
2022/07/06 01:09:44;;;;;;;1999.90;999.90;;;16.20;99.90;;;;;;5007475;28;20483;-70
2022/07/06 01:12:12;;;;;;;1999.90;999.90;;;16.10;99.90;;;;;;5008653;28;20468;-69
2022/07/06 01:14:39;;;;;;;1999.90;999.90;;;16.10;99.90;;;;;;5009425;28;20851;-70
2022/07/06 01:17:06;;;;;;;1999.90;999.90;;;15.90;99.90;;;;;;5006162;28;20509;-70
2022/07/06 01:19:32;;;;;;;1999.90;999.90;;;15.80;99.90;;;;;;5008915;28;20499;-70
2022/07/06 01:22:00;;;;;;;1999.90;999.90;;;15.70;99.90;;;;;;5008464;28;20464;-68
2022/07/06 01:24:27;;;;;;;1999.90;999.90;;;15.70;99.90;;;;;;5009365;28;20952;-71
2022/07/06 01:26:54;;;;;;;1999.90;999.90;;;15.70;99.90;;;;;;5009323;28;20498;-70
2022/07/06 01:29:20;;;;;;;1999.90;999.90;;;15.70;99.90;;;;;;5008150;28;20566;-71
2022/07/06 01:31:49;;;;;;;1999.90;999.90;;;15.70;99.90;;;;;;5006982;28;20459;-70
2022/07/06 01:34:17;;;;;;;1999.90;999.90;;;15.70;99.90;;;;;;5008017;28;20536;-70
2022/07/06 01:36:44;;;;;;;1999.90;999.90;;;15.70;99.90;;;;;;5009310;28;20533;-70
2022/07/06 01:39:12;;;;;;;1999.90;999.90;;;15.60;99.90;;;;;;5008010;28;20484;-69
2022/07/06 01:41:39;;;;;;;1999.90;999.90;;;15.50;99.90;;;;;;5008678;28;20460;-70
2022/07/06 01:44:06;;;;;;;1999.90;999.90;;;15.50;99.90;;;;;;5007471;28;20546;-70
2022/07/06 01:46:33;;;;;;;1999.90;999.90;;;15.60;99.90;;;;;;5012573;28;20464;-71
2022/07/06 01:49:00;;;;;;;1999.90;999.90;;;15.70;99.90;;;;;;5011770;28;20480;-68
2022/07/06 01:51:27;;;;;;;1999.90;999.90;;;15.70;99.90;;;;;;5011780;28;21027;-70
2022/07/06 01:53:53;;;;;;;1999.90;999.90;;;15.70;99.90;;;;;;5010941;28;20464;-70
2022/07/06 01:56:22;;;;;;;1999.90;999.90;;;15.60;99.90;;;;;;5011224;28;21055;-70
2022/07/06 01:58:49;;;;;;;1999.90;999.90;;;15.50;99.90;;;;;;5005709;28;21085;-70
2022/07/06 02:01:17;;;;;;;1999.90;999.90;;;15.50;99.90;;;;;;5011145;28;20465;-70
2022/07/06 02:03:44;;;;;;;1999.90;999.90;;;15.60;99.90;;;;;;5012458;28;20471;-71
2022/07/06 02:06:12;;;;;;;1999.90;999.90;;;15.60;99.90;;;;;;5011579;28;20468;-70
2022/07/06 02:08:42;;;;;;;1999.90;999.90;;;15.60;99.90;;;;;;5010028;28;20486;-71
2022/07/06 02:11:10;;;;;;;1999.90;999.90;;;15.60;99.90;;;;;;5009538;28;20480;-69
2022/07/06 02:13:38;;;;;;;1999.90;999.90;;;15.50;99.90;;;;;;5010367;28;20996;-71
2022/07/06 02:16:05;;;;;;;1999.90;999.90;;;15.60;99.90;;;;;;5010778;28;20466;-70
2022/07/06 02:18:32;;;;;;;1999.90;999.90;;;15.60;99.90;;;;;;5011568;28;20496;-69
2022/07/06 02:20:58;;;;;;;1999.90;999.90;;;15.50;99.90;;;;;;5011952;28;20456;-71
2022/07/06 02:23:25;;;;;;;1999.90;999.90;;;15.30;99.90;;;;;;5010975;28;20464;-71
2022/07/06 02:25:52;;;;;;;1999.90;999.90;;;15.20;99.90;;;;;;5012145;28;20547;-70
2022/07/06 02:28:19;;;;;;;1999.90;999.90;;;15.30;99.90;;;;;;5013263;28;20483;-70
2022/07/06 02:30:47;;;;;;;1999.90;999.90;;;15.40;99.90;;;;;;5024482;28;20488;-70
2022/07/06 02:33:13;;;;;;;1999.90;999.90;;;15.30;99.90;;;;;;5011007;28;20464;-71
2022/07/06 02:35:42;;;;;;;1999.90;999.90;;;15.30;99.90;;;;;;5010725;28;20460;-71
2022/07/06 02:38:09;;;;;;;1999.90;999.90;;;15.30;99.90;;;;;;5010521;28;20530;-70
2022/07/06 02:40:36;;;;;;;1999.90;999.90;;;15.30;99.90;;;;;;5011410;28;20456;-70
2022/07/06 02:43:02;;;;;;;1999.90;999.90;;;15.40;99.90;;;;;;5009143;28;20514;-68
2022/07/06 02:45:29;;;;;;;1999.90;999.90;;;15.30;99.90;;;;;;5011390;28;20522;-70
2022/07/06 02:47:57;;;;;;;1999.90;999.90;;;15.40;99.90;;;;;;5009811;28;21011;-70
2022/07/06 02:50:24;;;;;;;1999.90;999.90;;;15.30;99.90;;;;;;5010162;28;20487;-70
2022/07/06 02:52:50;;;;;;;1999.90;999.90;;;15.10;99.90;;;;;;5011299;28;20460;-71
2022/07/06 02:55:17;;;;;;;1999.90;999.90;;;15.20;99.90;;;;;;5008877;28;20460;-70
2022/07/06 02:57:44;;;;;;;1999.90;999.90;;;15.20;99.90;;;;;;5009313;28;20519;-70
2022/07/06 03:00:11;;;;;;;1999.90;999.90;;;15.10;99.90;;;;;;5008944;28;20960;-70
2022/07/06 03:02:37;;;;;;;1999.90;999.90;;;15.00;99.90;;;;;;5008672;28;21034;-70
2022/07/06 03:05:07;;;;;;;1999.90;999.90;;;15.10;99.90;;;;;;5009255;28;20464;-70
2022/07/06 03:07:33;;;;;;;1999.90;999.90;;;15.10;99.90;;;;;;5008503;28;21047;-70
2022/07/06 03:10:00;;;;;;;1999.90;999.90;;;15.20;99.90;;;;;;5008885;28;20515;-71
2022/07/06 03:12:26;;;;;;;1999.90;999.90;;;15.40;99.90;;;;;;5008173;28;20468;-70
2022/07/06 03:14:53;;;;;;;1999.90;999.90;;;15.50;99.90;;;;;;5009667;28;20467;-70
2022/07/06 03:17:21;;;;;;;1999.90;999.90;;;15.50;99.90;;;;;;5008569;28;20468;-70
2022/07/06 03:19:48;;;;;;;1999.90;999.90;;;15.50;99.90;;;;;;5010567;28;20492;-70
2022/07/06 03:22:16;;;;;;;1999.90;999.90;;;15.50;99.90;;;;;;5008693;28;21023;-70
2022/07/06 03:24:42;;;;;;;1999.90;999.90;;;15.40;99.90;;;;;;5011244;28;20464;-70
2022/07/06 03:27:09;;;;;;;1999.90;999.90;;;15.30;99.90;;;;;;5009991;28;20555;-70
2022/07/06 03:29:36;;;;;;;1999.90;999.90;;;15.40;99.90;;;;;;5010079;28;21000;-71
2022/07/06 03:32:02;;;;;;;1999.90;999.90;;;15.30;99.90;;;;;;5010837;28;20518;-71
2022/07/06 03:34:29;;;;;;;1999.90;999.90;;;15.40;99.90;;;;;;5009015;28;20459;-70
2022/07/06 03:36:56;;;;;;;1999.90;999.90;;;15.40;99.90;;;;;;5009264;28;20555;-70
2022/07/06 03:39:23;;;;;;;1999.90;999.90;;;15.30;99.90;;;;;;5009315;28;20480;-70
2022/07/06 03:41:50;;;;;;;1999.90;999.90;;;15.30;99.90;;;;;;5010087;28;20522;-70
2022/07/06 03:44:17;;;;;;;1999.90;999.90;;;15.30;99.90;;;;;;5008827;28;20464;-70
2022/07/06 03:46:43;;;;;;;1999.90;999.90;;;15.20;99.90;;;;;;5010304;28;21046;-70
2022/07/06 03:49:10;;;;;;;1999.90;999.90;;;15.20;99.90;;;;;;5007924;28;20490;-70
2022/07/06 03:51:37;;;;;;;1999.90;999.90;;;15.20;99.90;;;;;;5009671;28;20534;-70
2022/07/06 03:54:04;;;;;;;1999.90;999.90;;;15.10;99.90;;;;;;5007139;28;20463;-70
2022/07/06 03:56:32;;;;;;;1999.90;999.90;;;15.10;99.90;;;;;;5008629;28;20525;-70
2022/07/06 03:59:00;;;;;;;1999.90;999.90;;;15.10;99.90;;;;;;5010101;28;20571;-70
2022/07/06 04:01:27;;;;;;;1999.90;999.90;;;15.20;99.90;;;;;;5009968;28;20448;-70
2022/07/06 04:03:54;;;;;;;1999.90;999.90;;;15.20;99.90;;;;;;5008487;28;20527;-70
2022/07/06 04:06:20;;;;;;;1999.90;999.90;;;15.20;99.90;;;;;;5010235;28;20464;-71
2022/07/06 04:08:47;;;;;;;1999.90;999.90;;;15.30;99.90;;;;;;5008225;28;20480;-67
2022/07/06 04:11:14;;;;;;;1999.90;999.90;;;15.30;99.90;;;;;;5008879;28;20570;-70
2022/07/06 04:13:42;;;;;;;1999.90;999.90;;;15.40;99.90;;;;;;5010225;28;20468;-70
2022/07/06 04:16:08;;;;;;;1999.90;999.90;;;15.40;99.90;;;;;;5009801;28;20491;-67
2022/07/06 04:18:35;;;;;;;1999.90;999.90;;;15.50;99.90;;;;;;5028096;23;20574;-70
2022/07/06 04:21:03;;;;;;;1999.90;999.90;;;15.60;99.90;;;;;;5034322;28;20836;-71
2022/07/06 04:23:30;;;;;;;1999.90;999.90;;;15.70;99.90;;;;;;5030160;28;20474;-70
2022/07/06 04:25:56;;;;;;;1999.90;999.90;;;15.70;99.90;;;;;;5029211;28;20889;-71
2022/07/06 04:28:23;;;;;;;1999.90;999.90;;;15.70;99.90;;;;;;5028772;28;20454;-70
2022/07/06 04:30:51;;;;;;;1999.90;999.90;;;15.70;99.90;;;;;;5029882;28;20536;-70
2022/07/06 04:33:18;;;;;;;1999.90;999.90;;;15.80;99.90;;;;;;5028427;28;20459;-71
2022/07/06 04:35:44;;;;;;;1999.90;999.90;;;15.80;99.90;;;;;;5030722;28;20528;-70
2022/07/06 04:38:11;;;;;;;1999.90;999.90;;;15.70;99.90;;;;;;5029938;28;20459;-69
2022/07/06 04:40:38;;;;;;;1999.90;999.90;;;15.70;99.90;;;;;;5035444;28;20459;-72
2022/07/06 04:43:05;;;;;;;1999.90;999.90;;;15.70;99.90;;;;;;5032212;28;20469;-72
2022/07/06 04:45:32;;;;;;;1999.90;999.90;;;15.80;99.90;;;;;;5029539;28;20895;-71
2022/07/06 04:48:00;;;;;;;1999.90;999.90;;;15.80;99.90;;;;;;5028401;28;20455;-69
2022/07/06 04:50:26;;;;;;;1999.90;999.90;;;15.80;99.90;;;;;;5027345;28;20515;-69
2022/07/06 04:52:53;;;;;;;1999.90;999.90;;;15.90;99.90;;;;;;5034726;28;20812;-70
2022/07/06 04:55:20;;;;;;;1999.90;999.90;;;16.00;99.90;;;;;;5028591;28;20466;-70
2022/07/06 04:57:47;;;;;;;1999.90;999.90;;;16.10;99.90;;;;;;5029287;28;20467;-67
2022/07/06 05:00:14;;;;;;;1999.90;999.90;;;16.10;99.90;;;;;;5029047;28;20534;-70
2022/07/06 05:02:41;;;;;;;1999.90;999.90;;;16.20;99.90;;;;;;5031390;28;20565;-70
2022/07/06 05:05:10;;;;;;;1999.90;999.90;;;16.30;99.90;;;;;;5030780;28;20516;-70
2022/07/06 05:07:39;;;;;;;1999.90;999.90;;;16.30;99.90;;;;;;5028667;28;20615;-70
2022/07/06 05:10:07;;;;;;;1999.90;999.90;;;16.30;99.90;;;;;;5029319;28;20860;-70
2022/07/06 05:12:33;;;;;;;1999.90;999.90;;;16.20;99.90;;;;;;5028413;28;20851;-70
2022/07/06 05:15:00;;;;;;;1999.90;999.90;;;16.30;99.90;;;;;;5031887;28;20454;-71
2022/07/06 05:17:27;;;;;;;1999.90;999.90;;;16.40;99.90;;;;;;5029446;28;20948;-69
2022/07/06 05:19:53;;;;;;;1999.90;999.90;;;16.50;99.90;;;;;;5031595;28;20552;-70
2022/07/06 05:22:22;;;;;;;1999.90;999.90;;;16.70;99.90;;;;;;5032240;28;20455;-71
2022/07/06 05:24:48;;;;;;;1999.90;999.90;;;16.90;99.90;;;;;;5035837;28;20463;-70
2022/07/06 05:27:15;;;;;;;1999.90;999.90;;;17.00;99.90;;;;;;5035033;28;20543;-70
2022/07/06 05:29:41;;;;;;;1999.90;999.90;;;17.00;99.90;;;;;;5036403;28;20509;-70
2022/07/06 05:32:08;;;;;;;1999.90;999.90;;;17.10;99.90;;;;;;5039777;28;20483;-71
2022/07/06 05:34:36;;;;;;;1999.90;999.90;;;17.00;99.90;;;;;;5031227;28;20517;-70
2022/07/06 05:37:03;;;;;;;1999.90;999.90;;;16.90;99.90;;;;;;5034907;28;20837;-70
2022/07/06 05:39:31;;;;;;;1999.90;999.90;;;17.00;99.90;;;;;;5025134;28;20869;-71
2022/07/06 05:41:57;;;;;;;1999.90;999.90;;;17.00;99.90;;;;;;5033663;28;20463;-70
2022/07/06 05:44:24;;;;;;;1999.90;999.90;;;17.00;99.90;;;;;;5030320;28;20962;-70
2022/07/06 05:46:51;;;;;;;1999.90;999.90;;;17.20;99.90;;;;;;5034452;28;20470;-66
2022/07/06 05:52:01;;;;;;;1999.90;999.90;;;17.70;99.90;;;;;;5033641;28;20478;-69
2022/07/06 05:54:28;;;;;;;1999.90;999.90;;;17.80;99.90;;;;;;5035048;28;20916;-68
2022/07/06 05:56:56;;;;;;;1999.90;999.90;;;17.60;99.90;;;;;;5032706;28;20459;-69
2022/07/06 05:59:22;;;;;;;1999.90;999.90;;;17.40;99.90;;;;;;5031729;28;20482;-71
2022/07/06 06:01:49;;;;;;;1999.90;999.90;;;17.20;99.90;;;;;;5036083;28;20489;-71
2022/07/06 06:04:15;;;;;;;1999.90;999.90;;;17.00;99.90;;;;;;5031773;28;20466;-70
2022/07/06 06:06:42;;;;;;;1999.90;999.90;;;17.10;99.90;;;;;;5030864;28;20489;-70
2022/07/06 06:09:08;;;;;;;1999.90;999.90;;;17.10;99.90;;;;;;5031523;28;20479;-69
2022/07/06 06:11:35;;;;;;;1999.90;999.90;;;17.20;99.90;;;;;;5031948;28;20510;-70
2022/07/06 06:14:03;;;;;;;1999.90;999.90;;;17.30;99.90;;;;;;5032185;28;20569;-70
2022/07/06 06:16:30;;;;;;;1999.90;999.90;;;17.20;99.90;;;;;;5030980;28;20464;-70
2022/07/06 06:18:57;;;;;;;1999.90;999.90;;;17.20;99.90;;;;;;5031681;28;20889;-70
2022/07/06 06:21:23;;;;;;;1999.90;999.90;;;17.30;99.90;;;;;;5030055;28;20463;-70
2022/07/06 06:23:51;;;;;;;1999.90;999.90;;;17.70;99.90;;;;;;5034525;28;20527;-69
2022/07/06 06:26:18;;;;;;;1999.90;999.90;;;18.00;99.90;;;;;;5033768;28;20463;-68
2022/07/06 06:28:44;;;;;;;1999.90;999.90;;;18.10;99.90;;;;;;5032897;28;20561;-71
2022/07/06 06:31:12;;;;;;;1999.90;999.90;;;18.30;99.90;;;;;;5032792;28;20487;-70
2022/07/06 06:33:39;;;;;;;1999.90;999.90;;;18.10;99.90;;;;;;5032892;28;21138;-70
2022/07/06 06:36:06;;;;;;;1999.90;999.90;;;18.10;99.90;;;;;;5039609;28;20490;-71
2022/07/06 06:38:33;;;;;;;1999.90;999.90;;;18.20;99.90;;;;;;5033170;28;20571;-70
2022/07/06 06:41:01;;;;;;;1999.90;999.90;;;18.10;99.90;;;;;;5024613;28;20822;-70
2022/07/06 06:43:28;;;;;;;1999.90;999.90;;;17.70;99.90;;;;;;5029125;28;20471;-70
2022/07/06 06:45:54;;;;;;;1999.90;999.90;;;17.60;99.90;;;;;;5030669;28;20494;-71
2022/07/06 06:48:22;;;;;;;1999.90;999.90;;;17.70;99.90;;;;;;5029518;28;20460;-70
2022/07/06 06:50:49;;;;;;;1999.90;999.90;;;17.90;99.90;;;;;;5031436;28;20955;-70
2022/07/06 06:53:16;;;;;;;1999.90;999.90;;;18.10;99.90;;;;;;5029062;28;20463;-70
2022/07/06 06:55:42;;;;;;;1999.90;999.90;;;18.20;99.90;;;;;;5028755;28;20459;-70
2022/07/06 06:58:09;;;;;;;1999.90;999.90;;;18.20;99.90;;;;;;5035149;28;20463;-70
2022/07/06 07:00:36;;;;;;;1999.90;999.90;;;18.20;99.90;;;;;;5030477;28;20516;-71
2022/07/06 07:03:03;;;;;;;1999.90;999.90;;;18.40;99.90;;;;;;5029448;28;20856;-70
2022/07/06 07:05:31;;;;;;;1999.90;999.90;;;18.40;99.90;;;;;;5033224;28;20442;-70
2022/07/06 07:07:58;;;;;;;1999.90;999.90;;;18.70;99.90;;;;;;5030554;28;20463;-68
2022/07/06 07:10:26;;;;;;;1999.90;999.90;;;19.20;99.90;;;;;;5032896;28;20568;-68
2022/07/06 07:12:53;;;;;;;1999.90;999.90;;;19.80;99.90;;;;;;5033426;28;20513;-68
2022/07/06 07:15:19;;;;;;;1999.90;999.90;;;20.20;99.90;;;;;;5033209;28;20447;-68
2022/07/06 07:17:46;;;;;;;1999.90;999.90;;;20.40;99.90;;;;;;5033699;28;20510;-68
2022/07/06 07:20:13;;;;;;;1999.90;999.90;;;20.80;99.90;;;;;;5032442;28;20990;-68
2022/07/06 07:22:41;;;;;;;1999.90;999.90;;;20.80;99.40;;;;;;5033014;28;20446;-68
2022/07/06 07:25:08;;;;;;;1999.90;999.90;;;20.60;99.70;;;;;;5033254;28;20504;-69
2022/07/06 07:27:35;;;;;;;1999.90;999.90;;;20.40;99.70;;;;;;5032937;28;20447;-68
2022/07/06 07:30:01;;;;;;;1999.90;999.90;;;19.90;99.90;;;;;;5032529;28;20513;-68
2022/07/06 07:32:28;;;;;;;1999.90;999.90;;;19.50;99.90;;;;;;5033176;28;20561;-68
2022/07/06 07:34:55;;;;;;;1999.90;999.90;;;19.30;99.90;;;;;;5033486;28;20448;-68
2022/07/06 07:37:21;;;;;;;1999.90;999.90;;;19.10;99.90;;;;;;5032312;28;20447;-68
2022/07/06 07:39:49;;;;;;;1999.90;999.90;;;19.20;99.90;;;;;;5032551;28;20467;-68
2022/07/06 07:42:16;;;;;;;1999.90;999.90;;;19.00;99.90;;;;;;5031983;28;20455;-68
2022/07/06 07:44:42;;;;;;;1999.90;999.90;;;18.90;99.90;;;;;;5032824;28;20469;-68
2022/07/06 07:47:09;;;;;;;1999.90;999.90;;;19.10;99.90;;;;;;5032538;28;20443;-68
2022/07/06 07:49:35;;;;;;;1999.90;999.90;;;19.20;99.90;;;;;;5032345;28;20471;-68
2022/07/06 07:52:02;;;;;;;1999.90;999.90;;;19.30;99.90;;;;;;5032648;28;20549;-68
2022/07/06 07:54:29;;;;;;;1999.90;999.90;;;19.20;99.90;;;;;;5032720;28;20872;-68
2022/07/06 07:56:57;;;;;;;1999.90;999.90;;;19.00;99.90;;;;;;5032996;28;20443;-68
2022/07/06 07:59:24;;;;;;;1999.90;999.90;;;18.90;99.90;;;;;;5026054;28;20699;-68
2022/07/06 08:01:50;;;;;;;1999.90;999.90;;;19.10;99.90;;;;;;5032771;28;20878;-65
2022/07/06 08:04:17;;;;;;;1999.90;999.90;;;19.30;99.90;;;;;;5033065;28;20467;-68
2022/07/06 08:06:44;;;;;;;1999.90;999.90;;;19.20;99.90;;;;;;5025148;28;20454;-67
2022/07/06 08:09:10;;;;;;;1999.90;999.90;;;19.30;99.90;;;;;;5031818;28;20517;-68
2022/07/06 08:11:37;;;;;;;1999.90;999.90;;;19.60;99.30;;;;;;5029914;28;20533;-68
2022/07/06 08:14:05;;;;;;;1999.90;999.90;;;19.50;99.10;;;;;;5031200;28;20517;-68
2022/07/06 08:16:32;;;;;;;1999.90;999.90;;;19.40;98.60;;;;;;5029139;28;20448;-70
2022/07/06 08:18:59;;;;;;;1999.90;999.90;;;19.10;99.00;;;;;;5011827;28;20514;-70
2022/07/06 08:21:25;;;;;;;1999.90;999.90;;;19.00;99.40;;;;;;5019185;28;20970;-70
2022/07/06 08:23:53;;;;;;;1999.90;999.90;;;19.10;99.10;;;;;;5031044;28;20452;-70
2022/07/06 08:26:20;;;;;;;1999.90;999.90;;;18.90;99.60;;;;;;5032152;28;20443;-70
2022/07/06 08:28:46;;;;;;;1999.90;999.90;;;18.80;99.90;;;;;;5032349;28;20471;-69
2022/07/06 08:31:14;;;;;;;1999.90;999.90;;;19.00;99.80;;;;;;5030137;28;20490;-69
2022/07/06 08:33:41;;;;;;;1999.90;999.90;;;18.90;99.10;;;;;;5031816;28;20561;-69
2022/07/06 08:36:08;;;;;;;1999.90;999.90;;;18.90;99.20;;;;;;5031829;28;20443;-70
2022/07/06 08:38:34;;;;;;;1999.90;999.90;;;19.00;98.20;;;;;;5031531;28;20463;-70
2022/07/06 08:41:01;;;;;;;1999.90;999.90;;;19.10;98.60;;;;;;5030040;28;20978;-69
2022/07/06 08:43:28;;;;;;;1999.90;999.90;;;19.10;98.20;;;;;;5031711;28;20478;-69
2022/07/06 08:45:55;;;;;;;1999.90;999.90;;;19.00;98.00;;;;;;5031457;28;20875;-69
2022/07/06 08:48:25;;;;;;;1999.90;999.90;;;18.80;98.70;;;;;;5031376;28;21038;-69
2022/07/06 08:50:52;;;;;;;1999.90;999.90;;;18.70;98.60;;;;;;5030475;28;20477;-69
2022/07/06 08:53:19;;;;;;;1999.90;999.90;;;18.60;99.40;;;;;;5030569;28;20493;-69
2022/07/06 08:55:46;;;;;;;1999.90;999.90;;;18.40;99.50;;;;;;5035588;28;20451;-70
2022/07/06 08:58:14;;;;;;;1999.90;999.90;;;18.30;99.90;;;;;;5034576;28;20471;-68
2022/07/06 09:00:41;;;;;;;1999.90;999.90;;;18.50;99.90;;;;;;5033891;28;20946;-69
2022/07/06 09:03:12;;;;;;;1999.90;999.90;;;18.70;99.90;;;;;;5031467;28;20439;-70
2022/07/06 09:05:41;;;;;;;1999.90;999.90;;;19.00;99.90;;;;;;5015901;28;20428;-69
2022/07/06 09:08:07;;;;;;;1999.90;999.90;;;19.20;99.80;;;;;;5029889;28;20467;-69
2022/07/06 09:10:34;;;;;;;1999.90;999.90;;;19.50;99.60;;;;;;5021586;28;20546;-69
2022/07/06 09:13:05;;;;;;;1999.90;999.90;;;19.80;98.90;;;;;;5032315;28;21010;-66
2022/07/06 09:15:32;;;;;;;1999.90;999.90;;;19.90;99.00;;;;;;5025719;28;20529;-69
2022/07/06 09:17:58;;;;;;;1999.90;999.90;;;19.80;98.20;;;;;;5021980;28;20852;-70
2022/07/06 09:20:25;;;;;;;1999.90;999.90;;;19.70;98.80;;;;;;5024232;28;20544;-69
2022/07/06 09:22:58;;;;;;;1999.90;999.90;;;19.60;98.50;;;;;;5031526;28;20458;-69
2022/07/06 09:25:26;;;;;;;1999.90;999.90;;;19.70;98.30;;;;;;5034132;28;20465;-70
2022/07/06 09:27:54;;;;;;;1999.90;999.90;;;19.80;98.30;;;;;;5020915;28;20537;-69
2022/07/06 09:30:21;;;;;;;1999.90;999.90;;;19.70;97.30;;;;;;5034970;28;20482;-68
2022/07/06 09:32:50;;;;;;;1999.90;999.90;;;19.50;97.00;;;;;;5029442;28;20487;-68
2022/07/06 09:35:21;;;;;;;1999.90;999.90;;;19.60;97.30;;;;;;5026385;28;20528;-69
2022/07/06 09:38:02;;;;;;;1999.90;999.90;;;19.40;97.90;;;;;;5025218;28;20979;-68
2022/07/06 09:40:29;;;;;;;1999.90;999.90;;;19.00;98.00;;;;;;5029479;28;20543;-68
2022/07/06 09:43:09;;;;;;;1999.90;999.90;;;18.90;98.70;;;;;;5032469;28;20517;-69
2022/07/06 09:45:37;;;;;;;1999.90;999.90;;;18.80;99.50;;;;;;5026768;28;20468;-69
2022/07/06 09:48:08;;;;;;;1999.90;999.90;;;18.80;99.90;;;;;;5028614;28;20459;-69
2022/07/06 09:50:39;;;;;;;1999.90;999.90;;;18.70;99.90;;;;;;5025338;28;20454;-68
2022/07/06 09:53:08;;;;;;;1999.90;999.90;;;18.70;99.50;;;;;;5029086;28;20483;-69
2022/07/06 09:55:35;;;;;;;1999.90;999.90;;;18.70;99.90;;;;;;5027447;28;21023;-69
2022/07/06 09:58:01;;;;;;;1999.90;999.90;;;18.70;99.70;;;;;;5028844;28;20513;-74
2022/07/06 10:00:28;;;;;;;1999.90;999.90;;;18.80;99.90;;;;;;5030183;28;20479;-69
2022/07/06 10:02:55;;;;;;;1999.90;999.90;;;19.10;99.90;;;;;;5027385;28;20521;-69
2022/07/06 10:05:26;;;;;;;1999.90;999.90;;;19.40;99.90;;;;;;5027072;28;20521;-68
2022/07/06 10:07:56;;;;;;;1999.90;999.90;;;19.30;99.60;;;;;;5028459;28;20877;-68
2022/07/06 10:10:26;;;;;;;1999.90;999.90;;;19.50;99.90;;;;;;5024059;28;20474;-69
2022/07/06 10:12:55;;;;;;;1999.90;999.90;;;19.50;98.90;;;;;;5032219;28;20484;-69
2022/07/06 10:15:23;;;;;;;1999.90;999.90;;;19.40;98.20;;;;;;5029633;28;20486;-67
2022/07/06 10:17:51;;;;;;;1999.90;999.90;;;19.70;98.50;;;;;;5027993;28;20469;-67
2022/07/06 10:20:18;;;;;;;1999.90;999.90;;;20.30;96.30;;;;;;5040853;23;20978;-69
2022/07/06 10:22:46;;;;;;;1999.90;999.90;;;20.50;96.00;;;;;;5035170;28;20459;-69
2022/07/06 10:25:13;;;;;;;1999.90;999.90;;;20.80;96.00;;;;;;5034399;28;20985;-69
2022/07/06 10:27:43;;;;;;;1999.90;999.90;;;21.10;95.40;;;;;;5033531;28;20817;-69
2022/07/06 10:30:11;;;;;;;1999.90;999.90;;;21.40;95.40;;;;;;5033666;28;20467;-69
2022/07/06 10:32:41;;;;;;;1999.90;999.90;;;21.30;94.40;;;;;;5031226;28;20486;-68
2022/07/06 10:35:09;;;;;;;1999.90;999.90;;;20.80;94.60;;;;;;5033979;28;20444;-71
2022/07/06 10:37:36;;;;;;;1999.90;999.90;;;20.50;94.40;;;;;;5033154;28;20826;-71
2022/07/06 10:42:51;;;;;;;1999.90;999.90;;;20.20;94.70;;;;;;5033045;28;20525;-71
2022/07/06 10:45:41;;;;;;;1999.90;999.90;;;20.10;94.70;;;;;;5033472;28;20845;-71
2022/07/06 10:48:17;;;;;;;1999.90;999.90;;;19.80;94.70;;;;;;5028608;28;20520;-71
2022/07/06 10:50:48;;;;;;;1999.90;999.90;;;19.80;94.60;;;;;;5030747;28;20499;-71
2022/07/06 10:53:16;;;;;;;1999.90;999.90;;;19.70;93.70;;;;;;5030452;28;20823;-70
2022/07/06 10:55:46;;;;;;;1999.90;999.90;;;19.50;93.50;;;;;;5029490;28;20471;-71
2022/07/06 10:58:14;;;;;;;1999.90;999.90;;;19.30;93.40;;;;;;5027769;28;20451;-71
2022/07/06 11:00:50;;;;;;;1999.90;999.90;;;19.50;93.80;;;;;;5030427;28;20487;-71
2022/07/06 11:03:34;;;;;;;1999.90;999.90;;;19.60;94.50;;;;;;5025168;28;20455;-71
2022/07/06 11:06:01;;;;;;;1999.90;999.90;;;20.10;94.30;;;;;;5030330;28;20463;-71
2022/07/06 11:08:54;;;;;;;1999.90;999.90;;;20.30;93.90;;;;;;5027204;28;20877;-71
2022/07/06 11:11:22;;;;;;;1999.90;999.90;;;20.50;93.30;;;;;;5027629;28;20470;-71
2022/07/06 11:13:53;;;;;;;1999.90;999.90;;;20.60;92.90;;;;;;5027098;28;20483;-71
2022/07/06 11:16:21;;;;;;;1999.90;999.90;;;20.30;93.10;;;;;;5026910;28;20490;-71
2022/07/06 11:18:49;;;;;;;1999.90;999.90;;;20.10;93.60;;;;;;5026776;28;21271;-71
2022/07/06 11:21:20;;;;;;;1999.90;999.90;;;20.40;93.60;;;;;;5026827;28;20483;-70
2022/07/06 11:23:49;;;;;;;1999.90;999.90;;;20.60;93.50;;;;;;5029345;28;20456;-72
2022/07/06 11:26:18;;;;;;;1999.90;999.90;;;20.70;93.50;;;;;;5027974;28;20463;-71
2022/07/06 11:28:47;;;;;;;1999.90;999.90;;;20.90;92.20;;;;;;5028785;28;20468;-70
2022/07/06 11:31:15;;;;;;;1999.90;999.90;;;20.50;92.60;;;;;;5025364;28;20569;-71
2022/07/06 11:33:45;;;;;;;1999.90;999.90;;;20.10;93.20;;;;;;5029536;28;20491;-71
2022/07/06 11:36:16;;;;;;;1999.90;999.90;;;20.00;92.80;;;;;;5026535;28;20833;-69
2022/07/06 11:38:44;;;;;;;1999.90;999.90;;;20.00;92.80;;;;;;5029717;28;20893;-70
2022/07/06 11:41:12;;;;;;;1999.90;999.90;;;20.10;92.70;;;;;;5030198;28;20828;-71
2022/07/06 11:43:42;;;;;;;1999.90;999.90;;;20.10;93.00;;;;;;5029117;28;20509;-71
2022/07/06 11:46:26;;;;;;;1999.90;999.90;;;20.50;93.30;;;;;;5031265;28;20470;-72
2022/07/06 11:48:54;;;;;;;1999.90;999.90;;;20.80;92.60;;;;;;5030088;28;20451;-69
2022/07/06 11:51:21;;;;;;;1999.90;999.90;;;21.10;92.50;;;;;;5028492;28;20889;-69
2022/07/06 11:53:50;;;;;;;1999.90;999.90;;;21.70;91.60;;;;;;5029565;28;20560;-68
2022/07/06 11:56:18;;;;;;;1999.90;999.90;;;21.90;90.60;;;;;;5026197;28;20471;-68
2022/07/06 11:58:46;;;;;;;1999.90;999.90;;;21.90;90.70;;;;;;5029910;28;20471;-68
2022/07/06 12:01:15;;;;;;;1999.90;999.90;;;21.60;90.70;;;;;;5030076;28;20479;-68
2022/07/06 12:03:43;;;;;;;1999.90;999.90;;;21.40;90.40;;;;;;5029793;28;20471;-70
2022/07/06 12:06:15;;;;;;;1999.90;999.90;;;21.10;91.50;;;;;;5029109;28;20459;-70
2022/07/06 12:08:43;;;;;;;1999.90;999.90;;;21.10;91.30;;;;;;5029626;28;20517;-68